sensor_id;sensor_type;location;lat;lon;timestamp;P1;durP1;ratioP1;P2;durP2;ratioP2
21173;SDS011;10744;50.854;4.380;2022-07-01T00:02:15;11.15;;;3.80;;
21173;SDS011;10744;50.854;4.380;2022-07-01T00:04:40;7.70;;;3.47;;
21173;SDS011;10744;50.854;4.380;2022-07-01T00:07:06;9.77;;;3.83;;
21173;SDS011;10744;50.854;4.380;2022-07-01T00:09:32;10.40;;;3.95;;
21173;SDS011;10744;50.854;4.380;2022-07-01T00:11:57;7.65;;;3.58;;
21173;SDS011;10744;50.854;4.380;2022-07-01T00:14:23;11.20;;;3.95;;
21173;SDS011;10744;50.854;4.380;2022-07-01T00:16:49;6.45;;;4.50;;
21173;SDS011;10744;50.854;4.380;2022-07-01T00:19:16;10.25;;;3.80;;
21173;SDS011;10744;50.854;4.380;2022-07-01T00:21:42;8.23;;;4.30;;
21173;SDS011;10744;50.854;4.380;2022-07-01T00:24:07;10.00;;;4.05;;
21173;SDS011;10744;50.854;4.380;2022-07-01T00:26:33;10.52;;;4.63;;
21173;SDS011;10744;50.854;4.380;2022-07-01T00:28:59;7.80;;;4.88;;
21173;SDS011;10744;50.854;4.380;2022-07-01T00:31:24;10.95;;;4.28;;
21173;SDS011;10744;50.854;4.380;2022-07-01T00:33:50;13.77;;;5.28;;
21173;SDS011;10744;50.854;4.380;2022-07-01T00:36:16;13.15;;;4.53;;
21173;SDS011;10744;50.854;4.380;2022-07-01T00:38:41;15.48;;;4.80;;
21173;SDS011;10744;50.854;4.380;2022-07-01T00:41:07;9.63;;;4.25;;
21173;SDS011;10744;50.854;4.380;2022-07-01T00:43:36;11.30;;;4.10;;
21173;SDS011;10744;50.854;4.380;2022-07-01T00:46:03;12.82;;;4.47;;
21173;SDS011;10744;50.854;4.380;2022-07-01T00:48:29;9.52;;;4.50;;
21173;SDS011;10744;50.854;4.380;2022-07-01T00:50:57;10.60;;;5.03;;
21173;SDS011;10744;50.854;4.380;2022-07-01T00:53:23;10.93;;;4.53;;
21173;SDS011;10744;50.854;4.380;2022-07-01T00:55:49;15.35;;;5.22;;
21173;SDS011;10744;50.854;4.380;2022-07-01T00:58:15;16.08;;;5.63;;
21173;SDS011;10744;50.854;4.380;2022-07-01T01:00:41;12.30;;;5.03;;
21173;SDS011;10744;50.854;4.380;2022-07-01T01:03:08;11.93;;;4.55;;
21173;SDS011;10744;50.854;4.380;2022-07-01T01:05:36;8.70;;;4.80;;
21173;SDS011;10744;50.854;4.380;2022-07-01T01:08:02;17.40;;;5.57;;
21173;SDS011;10744;50.854;4.380;2022-07-01T01:10:29;13.57;;;4.95;;
21173;SDS011;10744;50.854;4.380;2022-07-01T01:12:56;15.10;;;5.20;;
21173;SDS011;10744;50.854;4.380;2022-07-01T01:15:23;8.75;;;4.88;;
21173;SDS011;10744;50.854;4.380;2022-07-01T01:17:49;8.25;;;4.75;;
21173;SDS011;10744;50.854;4.380;2022-07-01T01:20:15;9.27;;;4.85;;
21173;SDS011;10744;50.854;4.380;2022-07-01T01:22:43;9.90;;;5.47;;
21173;SDS011;10744;50.854;4.380;2022-07-01T01:25:09;10.32;;;5.10;;
21173;SDS011;10744;50.854;4.380;2022-07-01T01:27:35;13.23;;;4.97;;
21173;SDS011;10744;50.854;4.380;2022-07-01T01:30:03;14.43;;;5.55;;
21173;SDS011;10744;50.854;4.380;2022-07-01T01:32:33;13.65;;;5.10;;
21173;SDS011;10744;50.854;4.380;2022-07-01T01:34:59;12.32;;;5.47;;
21173;SDS011;10744;50.854;4.380;2022-07-01T01:37:25;10.45;;;5.25;;
21173;SDS011;10744;50.854;4.380;2022-07-01T01:39:52;11.20;;;5.05;;
21173;SDS011;10744;50.854;4.380;2022-07-01T01:42:18;14.50;;;5.38;;
21173;SDS011;10744;50.854;4.380;2022-07-01T01:44:44;11.85;;;5.55;;
21173;SDS011;10744;50.854;4.380;2022-07-01T01:47:10;11.40;;;5.13;;
21173;SDS011;10744;50.854;4.380;2022-07-01T01:49:35;9.07;;;4.85;;
21173;SDS011;10744;50.854;4.380;2022-07-01T01:52:01;13.43;;;5.63;;
21173;SDS011;10744;50.854;4.380;2022-07-01T01:54:27;13.85;;;5.70;;
21173;SDS011;10744;50.854;4.380;2022-07-01T01:56:53;13.18;;;5.55;;
21173;SDS011;10744;50.854;4.380;2022-07-01T01:59:19;11.32;;;4.95;;
21173;SDS011;10744;50.854;4.380;2022-07-01T02:01:44;14.98;;;5.28;;
21173;SDS011;10744;50.854;4.380;2022-07-01T02:04:10;12.80;;;4.57;;
21173;SDS011;10744;50.854;4.380;2022-07-01T02:06:36;9.80;;;4.38;;
21173;SDS011;10744;50.854;4.380;2022-07-01T02:09:02;11.38;;;4.43;;
21173;SDS011;10744;50.854;4.380;2022-07-01T02:11:28;11.40;;;5.13;;
21173;SDS011;10744;50.854;4.380;2022-07-01T02:13:54;12.40;;;4.47;;
21173;SDS011;10744;50.854;4.380;2022-07-01T02:16:19;16.08;;;4.45;;
21173;SDS011;10744;50.854;4.380;2022-07-01T02:18:45;11.00;;;5.00;;
21173;SDS011;10744;50.854;4.380;2022-07-01T02:21:11;10.73;;;4.60;;
21173;SDS011;10744;50.854;4.380;2022-07-01T02:23:36;11.63;;;5.00;;
21173;SDS011;10744;50.854;4.380;2022-07-01T02:26:02;15.13;;;5.03;;
21173;SDS011;10744;50.854;4.380;2022-07-01T02:28:28;8.85;;;4.63;;
21173;SDS011;10744;50.854;4.380;2022-07-01T02:30:54;13.88;;;5.22;;
21173;SDS011;10744;50.854;4.380;2022-07-01T02:33:19;10.13;;;4.80;;
21173;SDS011;10744;50.854;4.380;2022-07-01T02:35:46;13.48;;;5.10;;
21173;SDS011;10744;50.854;4.380;2022-07-01T02:38:12;10.98;;;5.35;;
21173;SDS011;10744;50.854;4.380;2022-07-01T02:40:38;10.40;;;4.68;;
21173;SDS011;10744;50.854;4.380;2022-07-01T02:43:05;11.15;;;4.38;;
21173;SDS011;10744;50.854;4.380;2022-07-01T02:45:31;14.35;;;5.22;;
21173;SDS011;10744;50.854;4.380;2022-07-01T02:47:57;11.27;;;4.18;;
21173;SDS011;10744;50.854;4.380;2022-07-01T02:50:23;14.95;;;4.65;;
21173;SDS011;10744;50.854;4.380;2022-07-01T02:52:49;12.07;;;4.90;;
21173;SDS011;10744;50.854;4.380;2022-07-01T02:55:15;11.20;;;4.75;;
21173;SDS011;10744;50.854;4.380;2022-07-01T02:57:41;14.40;;;4.00;;
21173;SDS011;10744;50.854;4.380;2022-07-01T03:00:09;10.23;;;4.10;;
21173;SDS011;10744;50.854;4.380;2022-07-01T03:02:36;13.95;;;5.47;;
21173;SDS011;10744;50.854;4.380;2022-07-01T03:05:03;11.00;;;5.03;;
21173;SDS011;10744;50.854;4.380;2022-07-01T03:07:29;15.15;;;4.75;;
21173;SDS011;10744;50.854;4.380;2022-07-01T03:09:55;9.27;;;3.65;;
21173;SDS011;10744;50.854;4.380;2022-07-01T03:12:21;17.70;;;5.00;;
21173;SDS011;10744;50.854;4.380;2022-07-01T03:14:54;12.32;;;4.35;;
21173;SDS011;10744;50.854;4.380;2022-07-01T03:17:21;8.35;;;4.38;;
21173;SDS011;10744;50.854;4.380;2022-07-01T03:19:51;14.63;;;4.47;;
21173;SDS011;10744;50.854;4.380;2022-07-01T03:22:22;9.02;;;3.47;;
21173;SDS011;10744;50.854;4.380;2022-07-01T03:24:49;13.30;;;4.22;;
21173;SDS011;10744;50.854;4.380;2022-07-01T03:27:16;8.52;;;4.72;;
21173;SDS011;10744;50.854;4.380;2022-07-01T03:29:42;13.00;;;5.05;;
21173;SDS011;10744;50.854;4.380;2022-07-01T03:32:09;13.98;;;7.55;;
21173;SDS011;10744;50.854;4.380;2022-07-01T03:34:39;15.27;;;8.23;;
21173;SDS011;10744;50.854;4.380;2022-07-01T03:37:06;17.40;;;8.18;;
21173;SDS011;10744;50.854;4.380;2022-07-01T03:39:34;16.92;;;8.43;;
21173;SDS011;10744;50.854;4.380;2022-07-01T03:42:00;12.05;;;6.82;;
21173;SDS011;10744;50.854;4.380;2022-07-01T03:44:26;18.00;;;7.38;;
21173;SDS011;10744;50.854;4.380;2022-07-01T03:46:52;13.10;;;6.43;;
21173;SDS011;10744;50.854;4.380;2022-07-01T03:49:19;8.95;;;5.88;;
21173;SDS011;10744;50.854;4.380;2022-07-01T03:51:44;14.63;;;4.93;;
21173;SDS011;10744;50.854;4.380;2022-07-01T03:54:10;10.43;;;4.80;;
21173;SDS011;10744;50.854;4.380;2022-07-01T03:56:54;15.63;;;4.05;;
21173;SDS011;10744;50.854;4.380;2022-07-01T03:59:20;12.77;;;5.18;;
21173;SDS011;10744;50.854;4.380;2022-07-01T04:01:46;19.85;;;4.43;;
21173;SDS011;10744;50.854;4.380;2022-07-01T04:04:12;10.60;;;4.15;;
21173;SDS011;10744;50.854;4.380;2022-07-01T04:06:37;10.18;;;4.10;;
21173;SDS011;10744;50.854;4.380;2022-07-01T04:09:03;13.43;;;3.67;;
21173;SDS011;10744;50.854;4.380;2022-07-01T04:11:29;11.43;;;3.75;;
21173;SDS011;10744;50.854;4.380;2022-07-01T04:13:56;15.13;;;4.63;;
21173;SDS011;10744;50.854;4.380;2022-07-01T04:16:22;15.73;;;4.15;;
21173;SDS011;10744;50.854;4.380;2022-07-01T04:18:49;11.02;;;4.35;;
21173;SDS011;10744;50.854;4.380;2022-07-01T04:21:14;11.13;;;4.40;;
21173;SDS011;10744;50.854;4.380;2022-07-01T04:23:58;12.15;;;4.45;;
21173;SDS011;10744;50.854;4.380;2022-07-01T04:26:25;8.32;;;4.35;;
21173;SDS011;10744;50.854;4.380;2022-07-01T04:28:51;9.38;;;4.75;;
21173;SDS011;10744;50.854;4.380;2022-07-01T04:31:18;8.48;;;4.43;;
21173;SDS011;10744;50.854;4.380;2022-07-01T04:33:45;10.50;;;4.45;;
21173;SDS011;10744;50.854;4.380;2022-07-01T04:36:11;8.52;;;3.42;;
21173;SDS011;10744;50.854;4.380;2022-07-01T04:38:36;14.05;;;3.42;;
21173;SDS011;10744;50.854;4.380;2022-07-01T04:41:02;9.77;;;3.28;;
21173;SDS011;10744;50.854;4.380;2022-07-01T04:43:46;7.13;;;2.80;;
21173;SDS011;10744;50.854;4.380;2022-07-01T04:46:12;10.63;;;3.65;;
21173;SDS011;10744;50.854;4.380;2022-07-01T04:48:37;9.93;;;2.90;;
21173;SDS011;10744;50.854;4.380;2022-07-01T04:51:05;5.88;;;2.65;;
21173;SDS011;10744;50.854;4.380;2022-07-01T04:53:31;8.13;;;2.67;;
21173;SDS011;10744;50.854;4.380;2022-07-01T04:55:56;6.55;;;2.33;;
21173;SDS011;10744;50.854;4.380;2022-07-01T04:58:22;14.00;;;5.10;;
21173;SDS011;10744;50.854;4.380;2022-07-01T05:00:48;12.52;;;2.90;;
21173;SDS011;10744;50.854;4.380;2022-07-01T05:03:14;8.90;;;2.70;;
21173;SDS011;10744;50.854;4.380;2022-07-01T05:05:41;8.30;;;2.53;;
21173;SDS011;10744;50.854;4.380;2022-07-01T05:08:07;9.70;;;2.30;;
21173;SDS011;10744;50.854;4.380;2022-07-01T05:10:33;8.82;;;2.30;;
21173;SDS011;10744;50.854;4.380;2022-07-01T05:12:58;6.32;;;2.08;;
21173;SDS011;10744;50.854;4.380;2022-07-01T05:15:24;8.52;;;1.92;;
21173;SDS011;10744;50.854;4.380;2022-07-01T05:17:50;8.85;;;2.42;;
21173;SDS011;10744;50.854;4.380;2022-07-01T05:20:34;5.75;;;2.25;;
21173;SDS011;10744;50.854;4.380;2022-07-01T05:23:18;8.25;;;2.28;;
21173;SDS011;10744;50.854;4.380;2022-07-01T05:25:44;13.43;;;2.60;;
21173;SDS011;10744;50.854;4.380;2022-07-01T05:28:10;9.70;;;2.30;;
21173;SDS011;10744;50.854;4.380;2022-07-01T05:30:35;10.68;;;2.35;;
21173;SDS011;10744;50.854;4.380;2022-07-01T05:33:01;10.38;;;2.70;;
21173;SDS011;10744;50.854;4.380;2022-07-01T05:35:27;8.90;;;2.28;;
21173;SDS011;10744;50.854;4.380;2022-07-01T05:37:52;10.52;;;3.22;;
21173;SDS011;10744;50.854;4.380;2022-07-01T05:40:18;12.45;;;3.17;;
21173;SDS011;10744;50.854;4.380;2022-07-01T05:42:44;8.13;;;2.85;;
21173;SDS011;10744;50.854;4.380;2022-07-01T05:45:10;13.68;;;2.70;;
21173;SDS011;10744;50.854;4.380;2022-07-01T05:47:35;11.18;;;2.70;;
21173;SDS011;10744;50.854;4.380;2022-07-01T05:50:01;6.85;;;2.35;;
21173;SDS011;10744;50.854;4.380;2022-07-01T05:52:27;10.10;;;3.05;;
21173;SDS011;10744;50.854;4.380;2022-07-01T05:54:53;8.70;;;2.30;;
21173;SDS011;10744;50.854;4.380;2022-07-01T05:57:18;7.45;;;2.30;;
21173;SDS011;10744;50.854;4.380;2022-07-01T05:59:44;7.03;;;2.17;;
21173;SDS011;10744;50.854;4.380;2022-07-01T06:02:10;9.07;;;2.20;;
21173;SDS011;10744;50.854;4.380;2022-07-01T06:04:35;15.48;;;2.78;;
21173;SDS011;10744;50.854;4.380;2022-07-01T06:07:01;7.15;;;2.38;;
21173;SDS011;10744;50.854;4.380;2022-07-01T06:09:27;15.35;;;2.30;;
21173;SDS011;10744;50.854;4.380;2022-07-01T06:11:52;8.90;;;2.38;;
21173;SDS011;10744;50.854;4.380;2022-07-01T06:14:18;12.35;;;2.38;;
21173;SDS011;10744;50.854;4.380;2022-07-01T06:16:44;7.75;;;2.42;;
21173;SDS011;10744;50.854;4.380;2022-07-01T06:19:09;7.32;;;2.40;;
21173;SDS011;10744;50.854;4.380;2022-07-01T06:21:35;8.70;;;2.22;;
21173;SDS011;10744;50.854;4.380;2022-07-01T06:24:01;6.60;;;1.92;;
21173;SDS011;10744;50.854;4.380;2022-07-01T06:26:26;10.70;;;2.03;;
21173;SDS011;10744;50.854;4.380;2022-07-01T06:28:52;7.80;;;1.88;;
21173;SDS011;10744;50.854;4.380;2022-07-01T06:31:18;7.47;;;2.10;;
21173;SDS011;10744;50.854;4.380;2022-07-01T06:33:43;7.95;;;2.63;;
21173;SDS011;10744;50.854;4.380;2022-07-01T06:36:09;8.13;;;2.05;;
21173;SDS011;10744;50.854;4.380;2022-07-01T06:38:35;12.02;;;1.77;;
21173;SDS011;10744;50.854;4.380;2022-07-01T06:41:01;9.98;;;2.08;;
21173;SDS011;10744;50.854;4.380;2022-07-01T06:43:47;11.05;;;2.00;;
21173;SDS011;10744;50.854;4.380;2022-07-01T06:46:12;6.43;;;1.75;;
21173;SDS011;10744;50.854;4.380;2022-07-01T06:48:38;10.77;;;2.15;;
21173;SDS011;10744;50.854;4.380;2022-07-01T06:51:04;8.07;;;2.00;;
21173;SDS011;10744;50.854;4.380;2022-07-01T06:53:29;8.10;;;2.08;;
21173;SDS011;10744;50.854;4.380;2022-07-01T06:55:56;9.90;;;1.80;;
21173;SDS011;10744;50.854;4.380;2022-07-01T06:58:21;9.57;;;1.85;;
21173;SDS011;10744;50.854;4.380;2022-07-01T07:00:47;11.30;;;1.77;;
21173;SDS011;10744;50.854;4.380;2022-07-01T07:03:14;10.27;;;2.60;;
21173;SDS011;10744;50.854;4.380;2022-07-01T07:05:40;8.23;;;1.88;;
21173;SDS011;10744;50.854;4.380;2022-07-01T07:08:05;10.07;;;1.63;;
21173;SDS011;10744;50.854;4.380;2022-07-01T07:10:31;6.32;;;1.63;;
21173;SDS011;10744;50.854;4.380;2022-07-01T07:12:57;6.43;;;1.50;;
21173;SDS011;10744;50.854;4.380;2022-07-01T07:15:22;8.35;;;1.95;;
21173;SDS011;10744;50.854;4.380;2022-07-01T07:17:48;8.40;;;1.45;;
21173;SDS011;10744;50.854;4.380;2022-07-01T07:20:14;9.93;;;1.50;;
21173;SDS011;10744;50.854;4.380;2022-07-01T07:22:39;6.70;;;1.63;;
21173;SDS011;10744;50.854;4.380;2022-07-01T07:25:05;10.32;;;2.20;;
21173;SDS011;10744;50.854;4.380;2022-07-01T07:27:31;5.07;;;1.40;;
21173;SDS011;10744;50.854;4.380;2022-07-01T07:29:57;7.63;;;1.35;;
21173;SDS011;10744;50.854;4.380;2022-07-01T07:32:22;6.93;;;1.50;;
21173;SDS011;10744;50.854;4.380;2022-07-01T07:34:48;6.75;;;1.13;;
21173;SDS011;10744;50.854;4.380;2022-07-01T07:37:14;8.05;;;1.77;;
21173;SDS011;10744;50.854;4.380;2022-07-01T07:39:39;5.50;;;1.17;;
21173;SDS011;10744;50.854;4.380;2022-07-01T07:42:05;5.82;;;1.02;;
21173;SDS011;10744;50.854;4.380;2022-07-01T07:44:31;6.72;;;1.35;;
21173;SDS011;10744;50.854;4.380;2022-07-01T07:46:57;5.97;;;1.00;;
21173;SDS011;10744;50.854;4.380;2022-07-01T07:49:23;5.90;;;1.00;;
21173;SDS011;10744;50.854;4.380;2022-07-01T07:51:50;6.85;;;1.15;;
21173;SDS011;10744;50.854;4.380;2022-07-01T07:54:16;10.13;;;1.25;;
21173;SDS011;10744;50.854;4.380;2022-07-01T07:56:41;3.97;;;0.70;;
21173;SDS011;10744;50.854;4.380;2022-07-01T07:59:07;5.93;;;1.27;;
21173;SDS011;10744;50.854;4.380;2022-07-01T08:01:32;5.88;;;1.13;;
21173;SDS011;10744;50.854;4.380;2022-07-01T08:03:58;5.65;;;1.23;;
21173;SDS011;10744;50.854;4.380;2022-07-01T08:06:24;4.82;;;0.70;;
21173;SDS011;10744;50.854;4.380;2022-07-01T08:08:50;3.92;;;1.08;;
21173;SDS011;10744;50.854;4.380;2022-07-01T08:11:16;5.97;;;1.15;;
21173;SDS011;10744;50.854;4.380;2022-07-01T08:13:42;6.03;;;1.23;;
21173;SDS011;10744;50.854;4.380;2022-07-01T08:16:08;7.78;;;1.10;;
21173;SDS011;10744;50.854;4.380;2022-07-01T08:18:35;5.30;;;0.73;;
21173;SDS011;10744;50.854;4.380;2022-07-01T08:21:01;7.68;;;1.17;;
21173;SDS011;10744;50.854;4.380;2022-07-01T08:23:27;9.48;;;1.35;;
21173;SDS011;10744;50.854;4.380;2022-07-01T08:25:52;6.88;;;1.17;;
21173;SDS011;10744;50.854;4.380;2022-07-01T08:28:18;3.63;;;0.80;;
21173;SDS011;10744;50.854;4.380;2022-07-01T08:30:44;5.43;;;1.17;;
21173;SDS011;10744;50.854;4.380;2022-07-01T08:33:10;7.05;;;1.00;;
21173;SDS011;10744;50.854;4.380;2022-07-01T08:35:36;9.80;;;1.08;;
21173;SDS011;10744;50.854;4.380;2022-07-01T08:38:03;7.93;;;1.35;;
21173;SDS011;10744;50.854;4.380;2022-07-01T08:40:30;3.63;;;0.77;;
21173;SDS011;10744;50.854;4.380;2022-07-01T08:42:56;8.57;;;1.25;;
21173;SDS011;10744;50.854;4.380;2022-07-01T08:45:28;7.55;;;1.35;;
21173;SDS011;10744;50.854;4.380;2022-07-01T08:47:57;6.68;;;1.10;;
21173;SDS011;10744;50.854;4.380;2022-07-01T08:50:26;9.25;;;1.40;;
21173;SDS011;10744;50.854;4.380;2022-07-01T08:52:56;4.70;;;0.95;;
21173;SDS011;10744;50.854;4.380;2022-07-01T08:55:22;7.20;;;1.27;;
21173;SDS011;10744;50.854;4.380;2022-07-01T08:57:48;4.30;;;0.90;;
21173;SDS011;10744;50.854;4.380;2022-07-01T09:00:14;4.30;;;0.80;;
21173;SDS011;10744;50.854;4.380;2022-07-01T09:02:54;8.70;;;0.90;;
21173;SDS011;10744;50.854;4.380;2022-07-01T09:05:22;6.07;;;1.10;;
21173;SDS011;10744;50.854;4.380;2022-07-01T09:07:54;5.80;;;0.95;;
21173;SDS011;10744;50.854;4.380;2022-07-01T09:10:22;5.32;;;0.90;;
21173;SDS011;10744;50.854;4.380;2022-07-01T09:12:48;3.92;;;0.80;;
21173;SDS011;10744;50.854;4.380;2022-07-01T09:17:53;7.78;;;0.98;;
21173;SDS011;10744;50.854;4.380;2022-07-01T09:23:09;4.40;;;1.05;;
21173;SDS011;10744;50.854;4.380;2022-07-01T09:25:44;5.70;;;1.00;;
21173;SDS011;10744;50.854;4.380;2022-07-01T09:28:23;6.78;;;1.30;;
21173;SDS011;10744;50.854;4.380;2022-07-01T09:30:52;4.75;;;0.98;;
21173;SDS011;10744;50.854;4.380;2022-07-01T09:33:22;9.63;;;1.17;;
21173;SDS011;10744;50.854;4.380;2022-07-01T09:35:49;3.42;;;0.80;;
21173;SDS011;10744;50.854;4.380;2022-07-01T09:38:20;7.65;;;1.30;;
21173;SDS011;10744;50.854;4.380;2022-07-01T09:43:21;5.85;;;0.98;;
21173;SDS011;10744;50.854;4.380;2022-07-01T09:46:02;5.63;;;1.10;;
21173;SDS011;10744;50.854;4.380;2022-07-01T09:51:01;4.15;;;1.20;;
21173;SDS011;10744;50.854;4.380;2022-07-01T09:53:27;12.68;;;1.33;;
21173;SDS011;10744;50.854;4.380;2022-07-01T09:55:53;5.45;;;1.35;;
21173;SDS011;10744;50.854;4.380;2022-07-01T09:58:19;5.03;;;1.17;;
21173;SDS011;10744;50.854;4.380;2022-07-01T10:00:45;7.90;;;1.52;;
21173;SDS011;10744;50.854;4.380;2022-07-01T10:03:11;8.48;;;1.17;;
21173;SDS011;10744;50.854;4.380;2022-07-01T10:05:42;6.28;;;1.00;;
21173;SDS011;10744;50.854;4.380;2022-07-01T10:10:47;7.30;;;1.33;;
21173;SDS011;10744;50.854;4.380;2022-07-01T10:13:27;4.18;;;1.30;;
21173;SDS011;10744;50.854;4.380;2022-07-01T10:15:56;9.77;;;1.45;;
21173;SDS011;10744;50.854;4.380;2022-07-01T10:18:26;7.30;;;2.58;;
21173;SDS011;10744;50.854;4.380;2022-07-01T10:20:54;6.53;;;1.45;;
21173;SDS011;10744;50.854;4.380;2022-07-01T10:23:22;3.88;;;1.15;;
21173;SDS011;10744;50.854;4.380;2022-07-01T10:26:02;2.22;;;0.75;;
21173;SDS011;10744;50.854;4.380;2022-07-01T10:28:30;3.45;;;0.90;;
21173;SDS011;10744;50.854;4.380;2022-07-01T10:31:13;2.65;;;1.10;;
21173;SDS011;10744;50.854;4.380;2022-07-01T10:41:26;2.83;;;1.10;;
21173;SDS011;10744;50.854;4.380;2022-07-01T10:43:53;4.28;;;1.20;;
21173;SDS011;10744;50.854;4.380;2022-07-01T10:51:46;5.55;;;1.15;;
21173;SDS011;10744;50.854;4.380;2022-07-01T10:59:43;6.55;;;1.20;;
21173;SDS011;10744;50.854;4.380;2022-07-01T11:02:21;7.15;;;1.00;;
21173;SDS011;10744;50.854;4.380;2022-07-01T11:04:57;3.17;;;0.85;;
21173;SDS011;10744;50.854;4.380;2022-07-01T11:07:24;3.72;;;1.38;;
21173;SDS011;10744;50.854;4.380;2022-07-01T11:09:50;5.47;;;1.10;;
21173;SDS011;10744;50.854;4.380;2022-07-01T11:12:16;4.07;;;0.98;;
21173;SDS011;10744;50.854;4.380;2022-07-01T11:14:42;7.82;;;0.98;;
21173;SDS011;10744;50.854;4.380;2022-07-01T11:17:08;4.57;;;1.00;;
21173;SDS011;10744;50.854;4.380;2022-07-01T11:19:34;10.52;;;1.80;;
21173;SDS011;10744;50.854;4.380;2022-07-01T11:22:01;4.78;;;0.98;;
21173;SDS011;10744;50.854;4.380;2022-07-01T11:24:28;3.85;;;0.75;;
21173;SDS011;10744;50.854;4.380;2022-07-01T11:27:27;2.38;;;0.60;;
21173;SDS011;10744;50.854;4.380;2022-07-01T11:29:51;4.50;;;1.13;;
21173;SDS011;10744;50.854;4.380;2022-07-01T11:32:27;5.85;;;1.00;;
21173;SDS011;10744;50.854;4.380;2022-07-01T11:34:54;5.15;;;0.70;;
21173;SDS011;10744;50.854;4.380;2022-07-01T11:37:20;3.63;;;0.70;;
21173;SDS011;10744;50.854;4.380;2022-07-01T11:42:34;7.78;;;2.65;;
21173;SDS011;10744;50.854;4.380;2022-07-01T11:45:00;3.00;;;0.60;;
21173;SDS011;10744;50.854;4.380;2022-07-01T11:47:26;4.00;;;1.08;;
21173;SDS011;10744;50.854;4.380;2022-07-01T11:49:52;4.45;;;0.88;;
21173;SDS011;10744;50.854;4.380;2022-07-01T11:52:19;3.15;;;0.60;;
21173;SDS011;10744;50.854;4.380;2022-07-01T11:54:49;14.13;;;6.30;;
21173;SDS011;10744;50.854;4.380;2022-07-01T11:59:45;3.90;;;0.82;;
21173;SDS011;10744;50.854;4.380;2022-07-01T12:02:14;5.43;;;0.65;;
21173;SDS011;10744;50.854;4.380;2022-07-01T12:04:42;3.95;;;1.00;;
21173;SDS011;10744;50.854;4.380;2022-07-01T12:07:08;2.42;;;0.60;;
21173;SDS011;10744;50.854;4.380;2022-07-01T12:09:35;4.63;;;1.27;;
21173;SDS011;10744;50.854;4.380;2022-07-01T12:12:02;4.50;;;0.70;;
21173;SDS011;10744;50.854;4.380;2022-07-01T12:14:29;3.67;;;0.85;;
21173;SDS011;10744;50.854;4.380;2022-07-01T12:17:01;4.05;;;0.80;;
21173;SDS011;10744;50.854;4.380;2022-07-01T12:22:27;5.03;;;1.13;;
21173;SDS011;10744;50.854;4.380;2022-07-01T12:25:07;2.38;;;0.65;;
21173;SDS011;10744;50.854;4.380;2022-07-01T12:27:34;5.60;;;1.00;;
21173;SDS011;10744;50.854;4.380;2022-07-01T12:30:03;3.58;;;1.08;;
21173;SDS011;10744;50.854;4.380;2022-07-01T12:32:30;2.15;;;0.52;;
21173;SDS011;10744;50.854;4.380;2022-07-01T12:35:08;2.97;;;0.73;;
21173;SDS011;10744;50.854;4.380;2022-07-01T12:37:57;8.63;;;1.67;;
21173;SDS011;10744;50.854;4.380;2022-07-01T12:40:24;5.63;;;1.17;;
21173;SDS011;10744;50.854;4.380;2022-07-01T12:42:53;3.58;;;0.50;;
21173;SDS011;10744;50.854;4.380;2022-07-01T12:45:23;2.97;;;0.73;;
21173;SDS011;10744;50.854;4.380;2022-07-01T12:47:50;3.17;;;0.50;;
21173;SDS011;10744;50.854;4.380;2022-07-01T12:50:26;6.90;;;1.13;;
21173;SDS011;10744;50.854;4.380;2022-07-01T12:55:42;3.55;;;0.55;;
21173;SDS011;10744;50.854;4.380;2022-07-01T12:58:11;3.97;;;0.63;;
21173;SDS011;10744;50.854;4.380;2022-07-01T13:00:39;7.78;;;0.63;;
21173;SDS011;10744;50.854;4.380;2022-07-01T13:03:06;4.68;;;0.50;;
21173;SDS011;10744;50.854;4.380;2022-07-01T13:05:33;4.47;;;0.80;;
21173;SDS011;10744;50.854;4.380;2022-07-01T13:08:00;3.92;;;1.05;;
21173;SDS011;10744;50.854;4.380;2022-07-01T13:10:27;5.07;;;0.70;;
21173;SDS011;10744;50.854;4.380;2022-07-01T13:12:53;4.35;;;0.80;;
21173;SDS011;10744;50.854;4.380;2022-07-01T13:15:19;1.90;;;0.60;;
21173;SDS011;10744;50.854;4.380;2022-07-01T13:17:46;9.20;;;1.35;;
21173;SDS011;10744;50.854;4.380;2022-07-01T13:20:12;4.70;;;1.23;;
21173;SDS011;10744;50.854;4.380;2022-07-01T13:22:39;4.97;;;1.08;;
21173;SDS011;10744;50.854;4.380;2022-07-01T13:25:05;6.63;;;0.68;;
21173;SDS011;10744;50.854;4.380;2022-07-01T13:27:32;3.67;;;0.82;;
21173;SDS011;10744;50.854;4.380;2022-07-01T13:29:58;7.03;;;0.98;;
21173;SDS011;10744;50.854;4.380;2022-07-01T13:32:24;3.40;;;0.57;;
21173;SDS011;10744;50.854;4.380;2022-07-01T13:34:50;3.17;;;0.52;;
21173;SDS011;10744;50.854;4.380;2022-07-01T13:37:16;2.95;;;0.50;;
21173;SDS011;10744;50.854;4.380;2022-07-01T13:39:42;4.95;;;0.60;;
21173;SDS011;10744;50.854;4.380;2022-07-01T13:42:07;4.20;;;0.75;;
21173;SDS011;10744;50.854;4.380;2022-07-01T13:44:33;3.53;;;0.82;;
21173;SDS011;10744;50.854;4.380;2022-07-01T13:46:59;3.58;;;0.60;;
21173;SDS011;10744;50.854;4.380;2022-07-01T13:49:27;4.72;;;0.50;;
21173;SDS011;10744;50.854;4.380;2022-07-01T13:51:53;5.18;;;0.70;;
21173;SDS011;10744;50.854;4.380;2022-07-01T13:54:19;2.33;;;0.73;;
21173;SDS011;10744;50.854;4.380;2022-07-01T13:56:45;2.63;;;0.63;;
21173;SDS011;10744;50.854;4.380;2022-07-01T13:59:10;4.78;;;0.80;;
21173;SDS011;10744;50.854;4.380;2022-07-01T14:01:37;5.63;;;0.77;;
21173;SDS011;10744;50.854;4.380;2022-07-01T14:04:03;3.75;;;1.50;;
21173;SDS011;10744;50.854;4.380;2022-07-01T14:06:29;4.72;;;0.80;;
21173;SDS011;10744;50.854;4.380;2022-07-01T14:08:54;3.97;;;0.85;;
21173;SDS011;10744;50.854;4.380;2022-07-01T14:11:21;3.58;;;0.95;;
21173;SDS011;10744;50.854;4.380;2022-07-01T14:13:47;3.78;;;0.93;;
21173;SDS011;10744;50.854;4.380;2022-07-01T14:16:12;4.20;;;0.70;;
21173;SDS011;10744;50.854;4.380;2022-07-01T14:18:38;8.15;;;1.10;;
21173;SDS011;10744;50.854;4.380;2022-07-01T14:21:04;6.85;;;1.10;;
21173;SDS011;10744;50.854;4.380;2022-07-01T14:23:30;3.53;;;0.90;;
21173;SDS011;10744;50.854;4.380;2022-07-01T14:25:56;5.07;;;0.75;;
21173;SDS011;10744;50.854;4.380;2022-07-01T14:28:22;5.28;;;0.80;;
21173;SDS011;10744;50.854;4.380;2022-07-01T14:30:48;6.07;;;1.95;;
21173;SDS011;10744;50.854;4.380;2022-07-01T14:33:15;3.88;;;0.85;;
21173;SDS011;10744;50.854;4.380;2022-07-01T14:35:41;1.52;;;0.47;;
21173;SDS011;10744;50.854;4.380;2022-07-01T14:38:08;2.55;;;1.15;;
21173;SDS011;10744;50.854;4.380;2022-07-01T14:40:35;9.13;;;0.90;;
21173;SDS011;10744;50.854;4.380;2022-07-01T14:43:01;3.78;;;0.60;;
21173;SDS011;10744;50.854;4.380;2022-07-01T14:45:27;2.17;;;0.50;;
21173;SDS011;10744;50.854;4.380;2022-07-01T14:47:53;19.02;;;0.88;;
21173;SDS011;10744;50.854;4.380;2022-07-01T14:50:19;5.13;;;0.73;;
21173;SDS011;10744;50.854;4.380;2022-07-01T14:52:45;5.07;;;0.85;;
21173;SDS011;10744;50.854;4.380;2022-07-01T14:55:10;9.00;;;0.90;;
21173;SDS011;10744;50.854;4.380;2022-07-01T14:57:36;7.50;;;0.63;;
21173;SDS011;10744;50.854;4.380;2022-07-01T15:00:03;6.43;;;1.00;;
21173;SDS011;10744;50.854;4.380;2022-07-01T15:02:29;7.57;;;0.70;;
21173;SDS011;10744;50.854;4.380;2022-07-01T15:04:55;13.00;;;1.20;;
21173;SDS011;10744;50.854;4.380;2022-07-01T15:07:21;3.97;;;0.90;;
21173;SDS011;10744;50.854;4.380;2022-07-01T15:09:49;4.90;;;0.98;;
21173;SDS011;10744;50.854;4.380;2022-07-01T15:12:16;4.47;;;1.05;;
21173;SDS011;10744;50.854;4.380;2022-07-01T15:14:43;5.10;;;0.82;;
21173;SDS011;10744;50.854;4.380;2022-07-01T15:17:09;3.65;;;0.95;;
21173;SDS011;10744;50.854;4.380;2022-07-01T15:19:35;3.50;;;0.60;;
21173;SDS011;10744;50.854;4.380;2022-07-01T15:22:03;4.10;;;0.70;;
21173;SDS011;10744;50.854;4.380;2022-07-01T15:24:29;5.85;;;0.60;;
21173;SDS011;10744;50.854;4.380;2022-07-01T15:26:55;3.20;;;0.70;;